createdAt,value
2022-11-16T00:01:39.371Z,6.30
2022-11-16T00:04:06.660Z,6.30
2022-11-16T00:06:34.215Z,6.30
2022-11-16T00:09:21.325Z,6.30
2022-11-16T00:11:55.181Z,6.20
2022-11-16T00:14:24.031Z,6.30
2022-11-16T00:16:52.103Z,6.20
2022-11-16T00:19:19.518Z,6.30
2022-11-16T00:21:47.527Z,6.30
2022-11-16T00:24:19.538Z,6.30
2022-11-16T00:26:47.858Z,6.30
2022-11-16T00:29:23.126Z,6.30
2022-11-16T00:31:51.397Z,6.30
2022-11-16T00:34:18.813Z,6.30
2022-11-16T00:36:47.117Z,6.30
2022-11-16T00:39:15.779Z,6.30
2022-11-16T00:41:44.040Z,6.30
2022-11-16T00:44:12.017Z,6.30
2022-11-16T00:46:40.059Z,6.30
2022-11-16T00:49:08.188Z,6.30
2022-11-16T00:51:36.707Z,6.30
2022-11-16T00:54:06.142Z,6.30
2022-11-16T00:56:37.538Z,6.30
2022-11-16T00:59:06.093Z,6.30
2022-11-16T01:01:33.766Z,6.30
2022-11-16T01:04:01.636Z,6.30
2022-11-16T01:06:29.428Z,6.30
2022-11-16T01:08:56.754Z,6.30
2022-11-16T01:11:43.059Z,6.30
2022-11-16T01:14:10.926Z,6.30
2022-11-16T01:16:38.626Z,6.30
2022-11-16T01:19:06.163Z,6.30
2022-11-16T01:21:34.560Z,6.30
2022-11-16T01:24:02.212Z,6.30
2022-11-16T01:26:29.922Z,6.30
2022-11-16T01:28:59.317Z,6.30
2022-11-16T01:31:29.793Z,6.30
2022-11-16T01:33:58.210Z,6.30
2022-11-16T01:36:29.413Z,6.40
2022-11-16T01:38:58.857Z,6.40
2022-11-16T01:41:30.712Z,6.40
2022-11-16T01:44:02.559Z,6.40
2022-11-16T01:46:36.281Z,6.40
2022-11-16T01:49:25.600Z,6.40
2022-11-16T01:52:05.482Z,6.40
2022-11-16T01:54:38.562Z,6.40
2022-11-16T01:57:09.608Z,6.40
2022-11-16T01:59:41.778Z,6.40
2022-11-16T02:02:16.134Z,6.40
2022-11-16T02:04:45.444Z,6.40
2022-11-16T02:08:00.729Z,6.40
2022-11-16T02:10:43.927Z,6.40
2022-11-16T02:13:21.316Z,6.40
2022-11-16T02:16:04.381Z,6.40
2022-11-16T02:18:39.108Z,6.40
2022-11-16T02:21:25.172Z,6.40
2022-11-16T02:24:13.865Z,6.40
2022-11-16T02:26:50.340Z,6.40
2022-11-16T02:29:40.636Z,6.40
2022-11-16T02:32:29.973Z,6.40
2022-11-16T02:35:13.309Z,6.40
2022-11-16T02:37:51.479Z,6.40
2022-11-16T02:40:22.518Z,6.40
2022-11-16T02:43:03.609Z,6.40
2022-11-16T02:45:36.479Z,6.40
2022-11-16T02:48:13.006Z,6.50
2022-11-16T02:50:42.863Z,6.50
2022-11-16T02:53:11.269Z,6.50
2022-11-16T02:55:39.955Z,6.50
2022-11-16T02:58:11.167Z,6.50
2022-11-16T03:01:03.517Z,6.50
2022-11-16T03:03:31.459Z,6.50
2022-11-16T03:06:18.148Z,6.60
2022-11-16T03:09:02.443Z,6.60
2022-11-16T03:11:53.867Z,6.60
2022-11-16T03:14:25.760Z,6.60
2022-11-16T03:16:58.730Z,6.60
2022-11-16T03:19:41.547Z,6.60
2022-11-16T03:22:21.673Z,6.60
2022-11-16T03:24:50.526Z,6.60
2022-11-16T03:27:37.229Z,6.60
2022-11-16T03:30:14.961Z,6.60
2022-11-16T03:33:10.754Z,6.60
2022-11-16T03:35:57.044Z,6.60
2022-11-16T03:38:28.809Z,6.50
2022-11-16T03:41:03.265Z,6.50
2022-11-16T03:43:33.465Z,6.50
2022-11-16T03:46:02.421Z,6.40
2022-11-16T03:48:36.028Z,6.40
2022-11-16T03:51:12.378Z,6.30
2022-11-16T03:53:41.214Z,6.40
2022-11-16T03:56:09.915Z,6.30
2022-11-16T03:58:39.090Z,6.40
2022-11-16T04:01:06.625Z,6.30
2022-11-16T04:03:34.557Z,6.30
2022-11-16T04:06:20.409Z,6.20
2022-11-16T04:09:06.183Z,6.20
2022-11-16T04:11:55.032Z,6.20
2022-11-16T04:14:43.536Z,6.20
2022-11-16T04:17:33.742Z,6.10
2022-11-16T04:20:19.897Z,6.10
2022-11-16T04:23:18.106Z,6.10
2022-11-16T04:25:47.506Z,6.10
2022-11-16T04:28:19.642Z,6.00
2022-11-16T04:31:16.995Z,6.00
2022-11-16T04:34:11.782Z,6.00
2022-11-16T04:37:02.931Z,6.00
2022-11-16T04:39:31.021Z,6.00
2022-11-16T04:42:17.312Z,6.00
2022-11-16T04:45:05.259Z,6.00
2022-11-16T04:47:50.203Z,6.00
2022-11-16T04:50:20.623Z,6.00
2022-11-16T04:52:49.832Z,6.00
2022-11-16T04:55:17.111Z,6.00
2022-11-16T04:57:46.329Z,6.00
2022-11-16T05:00:15.366Z,6.00
2022-11-16T05:02:43.121Z,6.00
2022-11-16T05:05:11.286Z,6.00
2022-11-16T05:07:41.807Z,6.00
2022-11-16T05:10:18.526Z,6.00
2022-11-16T05:12:46.342Z,6.00
2022-11-16T05:15:14.314Z,6.00
2022-11-16T05:17:41.796Z,6.00
2022-11-16T05:20:34.513Z,6.00
2022-11-16T05:23:04.967Z,6.00
2022-11-16T05:25:37.098Z,6.00
2022-11-16T05:28:07.998Z,5.90
2022-11-16T05:30:39.722Z,5.90
2022-11-16T05:33:07.342Z,5.90
2022-11-16T05:35:38.856Z,5.90
2022-11-16T05:38:07.193Z,5.90
2022-11-16T05:40:39.334Z,5.90
2022-11-16T05:43:06.900Z,5.90
2022-11-16T05:45:41.005Z,5.90
2022-11-16T05:48:09.443Z,5.90
2022-11-16T05:50:42.357Z,5.90
2022-11-16T05:53:17.383Z,5.90
2022-11-16T05:55:44.610Z,5.90
2022-11-16T05:58:12.271Z,5.90
2022-11-16T06:00:39.586Z,5.90
2022-11-16T06:03:09.608Z,5.90
2022-11-16T06:05:40.730Z,5.90
2022-11-16T06:08:10.397Z,5.90
2022-11-16T06:10:37.655Z,5.80
2022-11-16T06:13:06.582Z,5.80
2022-11-16T06:15:37.599Z,5.80
2022-11-16T06:18:05.875Z,5.80
2022-11-16T06:20:34.346Z,5.80
2022-11-16T06:23:01.962Z,5.80
2022-11-16T06:25:30.898Z,5.80
2022-11-16T06:28:01.923Z,5.80
2022-11-16T06:30:33.812Z,5.80
2022-11-16T06:33:02.395Z,5.80
2022-11-16T06:35:30.231Z,5.90
2022-11-16T06:37:58.671Z,5.90
2022-11-16T06:40:26.707Z,5.90
2022-11-16T06:42:57.176Z,5.90
2022-11-16T06:45:25.433Z,5.90
2022-11-16T06:47:55.975Z,5.90
2022-11-16T06:50:23.856Z,5.90
2022-11-16T06:52:51.422Z,5.90
2022-11-16T06:55:19.295Z,6.00
2022-11-16T06:57:48.511Z,6.00
2022-11-16T07:00:16.944Z,6.00
2022-11-16T07:02:45.100Z,6.00
2022-11-16T07:05:15.479Z,6.00
2022-11-16T07:07:43.073Z,6.00
2022-11-16T07:10:11.207Z,6.00
2022-11-16T07:12:38.932Z,6.00
2022-11-16T07:15:08.144Z,6.00
2022-11-16T07:17:39.933Z,6.10
2022-11-16T07:20:07.718Z,6.10
2022-11-16T07:22:35.359Z,6.10
2022-11-16T07:25:04.558Z,6.10
2022-11-16T07:27:32.080Z,6.00
2022-11-16T07:30:00.789Z,6.00
2022-11-16T07:32:34.542Z,6.00
2022-11-16T07:35:16.439Z,6.00
2022-11-16T07:37:44.158Z,5.90
2022-11-16T07:40:13.354Z,5.90
2022-11-16T07:42:42.140Z,5.90
2022-11-16T07:45:27.632Z,5.90
2022-11-16T07:47:59.250Z,5.90
2022-11-16T07:50:44.926Z,5.90
2022-11-16T07:53:12.522Z,5.80
2022-11-16T07:55:40.255Z,5.70
2022-11-16T07:58:08.558Z,5.60
2022-11-16T08:00:36.559Z,5.60
2022-11-16T08:03:13.370Z,5.50
2022-11-16T08:05:40.695Z,5.40
2022-11-16T08:08:08.307Z,5.40
2022-11-16T08:10:37.800Z,5.40
2022-11-16T08:13:05.989Z,5.40
2022-11-16T08:15:33.168Z,5.40
2022-11-16T08:18:03.988Z,5.40
2022-11-16T08:20:31.494Z,5.40
2022-11-16T08:23:00.881Z,5.30
2022-11-16T08:25:29.123Z,5.30
2022-11-16T08:27:57.959Z,5.30
2022-11-16T08:30:25.220Z,5.20
2022-11-16T08:32:53.854Z,5.20
2022-11-16T08:35:21.756Z,5.10
2022-11-16T08:37:49.241Z,5.10
2022-11-16T08:40:16.893Z,5.00
2022-11-16T08:42:44.612Z,5.00
2022-11-16T08:45:12.892Z,4.90
2022-11-16T08:47:41.504Z,4.90
2022-11-16T08:50:09.331Z,4.80
2022-11-16T08:52:36.795Z,4.70
2022-11-16T08:55:06.774Z,4.70
2022-11-16T08:57:34.585Z,4.70
2022-11-16T09:00:07.435Z,4.70
2022-11-16T09:02:34.971Z,4.60
2022-11-16T09:05:02.303Z,4.60
2022-11-16T09:07:29.848Z,4.60
2022-11-16T09:09:57.087Z,4.60
2022-11-16T09:12:24.579Z,4.60
2022-11-16T09:14:51.686Z,4.60
2022-11-16T09:17:23.089Z,4.50
2022-11-16T09:19:50.725Z,4.50
2022-11-16T09:22:18.189Z,4.50
2022-11-16T09:24:45.788Z,4.40
2022-11-16T09:27:13.321Z,4.40
2022-11-16T09:29:40.667Z,4.40
2022-11-16T09:32:08.422Z,4.40
2022-11-16T09:34:36.240Z,4.40
2022-11-16T09:37:03.743Z,4.30
2022-11-16T09:39:32.579Z,4.30
2022-11-16T09:42:23.165Z,4.30
2022-11-16T09:45:01.360Z,4.30
2022-11-16T09:47:49.811Z,4.30
2022-11-16T09:50:38.486Z,4.40
2022-11-16T09:53:38.582Z,4.40
2022-11-16T09:56:25.921Z,4.50
2022-11-16T09:59:11.093Z,4.50
2022-11-16T10:01:55.433Z,4.50
2022-11-16T10:04:43.785Z,4.60
2022-11-16T10:07:18.980Z,4.60
2022-11-16T10:09:47.492Z,4.60
2022-11-16T10:12:27.914Z,4.60
2022-11-16T10:15:29.292Z,4.60
2022-11-16T10:18:08.462Z,4.60
2022-11-16T10:20:42.178Z,4.60
2022-11-16T10:23:20.587Z,4.50
2022-11-16T10:25:58.112Z,4.60
2022-11-16T10:28:46.801Z,4.60
2022-11-16T10:31:20.187Z,4.50
2022-11-16T10:33:52.894Z,4.50
2022-11-16T10:36:27.103Z,4.50
2022-11-16T10:38:57.101Z,4.40
2022-11-16T10:41:39.537Z,4.30
2022-11-16T10:44:17.756Z,4.30
2022-11-16T10:47:04.686Z,4.30
2022-11-16T10:49:53.634Z,4.30
2022-11-16T10:52:21.085Z,4.20
2022-11-16T10:54:48.314Z,4.20
2022-11-16T10:57:16.340Z,4.10
2022-11-16T10:59:47.671Z,4.10
2022-11-16T11:02:36.128Z,4.10
2022-11-16T11:05:15.550Z,4.10
2022-11-16T11:07:49.340Z,4.10
2022-11-16T11:10:30.956Z,4.00
2022-11-16T11:13:04.617Z,4.10
2022-11-16T11:15:31.903Z,4.10
2022-11-16T11:18:17.432Z,4.10
2022-11-16T11:21:05.340Z,4.10
2022-11-16T11:23:42.772Z,4.10
2022-11-16T11:26:24.354Z,4.20
2022-11-16T11:28:52.007Z,4.10
2022-11-16T11:31:29.448Z,4.10
2022-11-16T11:34:18.996Z,4.00
2022-11-16T11:36:59.070Z,4.00
2022-11-16T11:39:30.386Z,3.90
2022-11-16T11:42:24.054Z,3.90
2022-11-16T11:44:58.728Z,3.90
2022-11-16T11:47:59.982Z,3.90
2022-11-16T11:50:39.447Z,3.90
2022-11-16T11:53:15.870Z,3.80
2022-11-16T11:55:43.303Z,3.90
2022-11-16T11:58:19.383Z,3.80
2022-11-16T12:01:12.594Z,3.80
2022-11-16T12:04:15.154Z,3.80
2022-11-16T12:06:55.061Z,3.90
2022-11-16T12:09:28.074Z,3.90
2022-11-16T12:12:13.313Z,4.00
2022-11-16T12:14:41.780Z,4.00
2022-11-16T12:17:45.089Z,4.10
2022-11-16T12:20:50.461Z,4.10
2022-11-16T12:23:25.360Z,4.10
2022-11-16T12:25:52.539Z,4.20
2022-11-16T12:28:34.740Z,4.20
2022-11-16T12:31:04.690Z,4.30
2022-11-16T12:33:56.710Z,4.20
2022-11-16T12:36:48.605Z,4.30
2022-11-16T12:39:25.066Z,4.30
2022-11-16T12:42:21.328Z,4.30
2022-11-16T12:45:32.018Z,4.30
2022-11-16T12:48:05.435Z,4.40
2022-11-16T12:51:11.953Z,4.40
2022-11-16T12:53:57.835Z,4.40
2022-11-16T12:56:49.141Z,4.50
2022-11-16T12:59:30.968Z,4.50
2022-11-16T13:02:21.704Z,4.50
2022-11-16T13:04:58.426Z,4.50
2022-11-16T13:07:31.918Z,4.50
2022-11-16T13:10:14.994Z,4.40
2022-11-16T13:12:44.461Z,4.40
2022-11-16T13:15:25.143Z,4.50
2022-11-16T13:18:01.916Z,4.50
2022-11-16T13:20:49.989Z,4.50
2022-11-16T13:23:50.979Z,4.50
2022-11-16T13:26:32.233Z,4.40
2022-11-16T13:29:22.878Z,4.40
2022-11-16T13:32:00.904Z,4.40
2022-11-16T13:34:33.959Z,4.40
2022-11-16T13:37:01.235Z,4.40
2022-11-16T13:39:58.768Z,4.40
2022-11-16T13:42:26.940Z,4.40
2022-11-16T13:45:07.552Z,4.40
2022-11-16T13:47:35.722Z,4.40
2022-11-16T13:50:06.929Z,4.40
2022-11-16T13:53:36.301Z,4.40
2022-11-16T13:55:40.348Z,4.30
2022-11-16T13:58:11.013Z,4.30
2022-11-16T14:00:42.174Z,4.40
2022-11-16T14:03:18.060Z,4.40
2022-11-16T14:05:48.116Z,4.30
2022-11-16T14:08:24.395Z,4.40
2022-11-16T14:10:52.108Z,4.30
2022-11-16T14:13:47.378Z,4.30
2022-11-16T14:16:18.036Z,4.30
2022-11-16T14:19:00.222Z,4.30
2022-11-16T14:21:45.981Z,4.30
2022-11-16T14:24:32.058Z,4.30
2022-11-16T14:27:24.290Z,4.30
2022-11-16T14:30:16.209Z,4.30
2022-11-16T14:32:46.600Z,4.30
2022-11-16T14:35:34.359Z,4.30
2022-11-16T14:38:08.335Z,4.30
2022-11-16T14:40:49.215Z,4.30
2022-11-16T14:43:24.501Z,4.30
2022-11-16T14:46:03.425Z,4.30
2022-11-16T14:48:31.888Z,4.40
2022-11-16T14:51:05.440Z,4.40
2022-11-16T14:53:36.788Z,4.40
2022-11-16T14:56:15.528Z,4.30
2022-11-16T14:59:16.207Z,4.30
2022-11-16T15:01:43.516Z,4.30
2022-11-16T15:04:16.123Z,4.30
2022-11-16T15:06:52.089Z,4.30
2022-11-16T15:09:30.524Z,4.30
2022-11-16T15:12:17.333Z,4.30
2022-11-16T15:14:52.021Z,4.30
2022-11-16T15:17:23.666Z,4.30
2022-11-16T15:20:20.037Z,4.30
2022-11-16T15:22:50.981Z,4.30
2022-11-16T15:25:59.506Z,4.30
2022-11-16T15:28:29.431Z,4.30
2022-11-16T15:31:02.458Z,4.30
2022-11-16T15:33:33.222Z,4.30
2022-11-16T15:36:01.005Z,4.30
2022-11-16T15:38:33.069Z,4.20
2022-11-16T15:41:04.918Z,4.20
2022-11-16T15:43:45.075Z,4.20
2022-11-16T15:46:26.004Z,4.30
2022-11-16T15:48:54.115Z,4.30
2022-11-16T15:51:23.361Z,4.30
2022-11-16T15:53:55.808Z,4.30
2022-11-16T15:56:26.107Z,4.30
2022-11-16T15:58:54.941Z,4.30
2022-11-16T16:01:23.410Z,4.30
2022-11-16T16:04:06.543Z,4.30
2022-11-16T16:06:54.516Z,4.30
2022-11-16T16:09:30.798Z,4.30
2022-11-16T16:12:16.869Z,4.30
2022-11-16T16:14:45.152Z,4.30
2022-11-16T16:17:26.063Z,4.30
2022-11-16T16:20:04.128Z,4.20
2022-11-16T16:22:37.029Z,4.30
2022-11-16T16:25:06.887Z,4.20
2022-11-16T16:27:40.044Z,4.20
2022-11-16T16:30:08.707Z,4.30
2022-11-16T16:32:37.710Z,4.30
2022-11-16T16:35:08.311Z,4.30
2022-11-16T16:37:38.721Z,4.30
2022-11-16T16:40:06.842Z,4.30
2022-11-16T16:42:34.334Z,4.20
2022-11-16T16:45:02.337Z,4.20
2022-11-16T16:47:30.878Z,4.20
2022-11-16T16:49:58.143Z,4.20
2022-11-16T16:52:25.915Z,4.20
2022-11-16T16:54:53.091Z,4.20
2022-11-16T16:57:20.593Z,4.20
2022-11-16T16:59:48.656Z,4.20
2022-11-16T17:02:17.116Z,4.20
2022-11-16T17:04:46.875Z,4.20
2022-11-16T17:07:15.655Z,4.10
2022-11-16T17:09:43.289Z,4.20
2022-11-16T17:12:11.157Z,4.20
2022-11-16T17:14:38.514Z,4.10
2022-11-16T17:17:05.996Z,4.20
2022-11-16T17:19:33.193Z,4.20
2022-11-16T17:22:00.706Z,4.20
2022-11-16T17:24:27.854Z,4.20
2022-11-16T17:26:55.310Z,4.10
2022-11-16T17:29:22.556Z,4.10
2022-11-16T17:31:50.077Z,4.10
2022-11-16T17:34:17.254Z,4.20
2022-11-16T17:36:45.128Z,4.10
2022-11-16T17:39:12.349Z,4.10
2022-11-16T17:41:40.127Z,4.10
2022-11-16T17:44:07.459Z,4.20
2022-11-16T17:46:35.007Z,4.10
2022-11-16T17:49:02.217Z,4.20
2022-11-16T17:51:30.036Z,4.10
2022-11-16T17:53:57.189Z,4.10
2022-11-16T17:56:26.935Z,4.10
2022-11-16T17:58:55.326Z,4.10
2022-11-16T18:01:23.366Z,4.10
2022-11-16T18:03:50.921Z,4.00
2022-11-16T18:06:20.807Z,4.00
2022-11-16T18:08:48.674Z,4.00
2022-11-16T18:11:18.775Z,4.00
2022-11-16T18:13:46.974Z,4.00
2022-11-16T18:16:17.321Z,4.00
2022-11-16T18:18:46.251Z,4.00
2022-11-16T18:21:20.466Z,4.00
2022-11-16T18:23:48.586Z,3.90
2022-11-16T18:26:18.880Z,3.90
2022-11-16T18:28:46.290Z,3.90
2022-11-16T18:31:15.836Z,3.90
2022-11-16T18:33:43.875Z,3.90
2022-11-16T18:36:12.470Z,3.90
2022-11-16T18:38:39.759Z,3.90
2022-11-16T18:41:27.741Z,3.90
2022-11-16T18:44:00.453Z,3.90
2022-11-16T18:46:32.814Z,3.90
2022-11-16T18:49:00.738Z,3.90
2022-11-16T18:51:29.302Z,3.90
2022-11-16T18:53:57.087Z,3.90
2022-11-16T18:56:25.134Z,3.80
2022-11-16T18:58:53.369Z,3.80
2022-11-16T19:01:23.941Z,3.80
2022-11-16T19:03:52.645Z,3.80
2022-11-16T19:06:20.784Z,3.80
2022-11-16T19:08:55.890Z,3.80
2022-11-16T19:11:24.443Z,3.80
2022-11-16T19:13:54.535Z,3.80
2022-11-16T19:16:23.344Z,3.80
2022-11-16T19:18:50.993Z,3.80
2022-11-16T19:21:19.355Z,3.90
2022-11-16T19:23:48.904Z,3.80
2022-11-16T19:26:18.181Z,3.80
2022-11-16T19:28:47.818Z,3.80
2022-11-16T19:31:24.232Z,3.90
2022-11-16T19:33:59.964Z,3.80
2022-11-16T19:36:28.780Z,3.80
2022-11-16T19:38:56.263Z,3.80
2022-11-16T19:41:24.727Z,3.80
2022-11-16T19:43:57.334Z,3.70
2022-11-16T19:46:29.158Z,3.80
2022-11-16T19:48:57.019Z,3.70
2022-11-16T19:51:27.346Z,3.70
2022-11-16T19:53:55.403Z,3.70
2022-11-16T19:56:24.145Z,3.70
2022-11-16T19:58:51.763Z,3.70
2022-11-16T20:01:25.405Z,3.70
2022-11-16T20:03:53.100Z,3.70
2022-11-16T20:06:28.226Z,3.70
2022-11-16T20:08:59.082Z,3.60
2022-11-16T20:11:29.135Z,3.60
2022-11-16T20:13:57.727Z,3.70
2022-11-16T20:16:27.483Z,3.70
2022-11-16T20:18:55.648Z,3.60
2022-11-16T20:21:33.078Z,3.60
2022-11-16T20:24:06.407Z,3.60
2022-11-16T20:26:35.963Z,3.60
2022-11-16T20:29:03.652Z,3.60
2022-11-16T20:31:33.266Z,3.60
2022-11-16T20:34:05.493Z,3.60
2022-11-16T20:36:33.967Z,3.60
2022-11-16T20:39:01.479Z,3.60
2022-11-16T20:41:31.139Z,3.60
2022-11-16T20:44:00.473Z,3.60
2022-11-16T20:46:30.465Z,3.60
2022-11-16T20:48:59.469Z,3.60
2022-11-16T20:51:28.020Z,3.60
2022-11-16T20:53:55.295Z,3.50
2022-11-16T20:56:22.892Z,3.50
2022-11-16T20:58:50.602Z,3.50
2022-11-16T21:01:31.865Z,3.40
2022-11-16T21:04:05.427Z,3.40
2022-11-16T21:06:33.428Z,3.30
2022-11-16T21:09:00.964Z,3.30
2022-11-16T21:11:30.764Z,3.30
2022-11-16T21:14:16.549Z,3.20
2022-11-16T21:16:44.320Z,3.20
2022-11-16T21:19:12.786Z,3.20
2022-11-16T21:21:41.050Z,3.20
2022-11-16T21:24:09.147Z,3.20
2022-11-16T21:26:37.559Z,3.10
2022-11-16T21:29:05.110Z,3.10
2022-11-16T21:31:34.870Z,3.10
2022-11-16T21:34:02.872Z,3.10
2022-11-16T21:36:31.986Z,3.10
2022-11-16T21:38:59.291Z,3.00
2022-11-16T21:41:27.301Z,3.00
2022-11-16T21:43:54.628Z,3.00
2022-11-16T21:46:26.886Z,3.00
2022-11-16T21:48:56.759Z,2.90
2022-11-16T21:51:26.393Z,2.90
2022-11-16T21:53:53.864Z,2.90
2022-11-16T21:56:23.598Z,2.90
2022-11-16T21:58:53.039Z,2.90
2022-11-16T22:01:21.899Z,2.90
2022-11-16T22:04:09.142Z,2.90
2022-11-16T22:06:55.259Z,2.90
2022-11-16T22:09:22.462Z,2.90
2022-11-16T22:14:53.083Z,2.90
2022-11-16T22:17:22.565Z,2.90
2022-11-16T22:19:49.893Z,2.90
2022-11-16T22:22:17.700Z,2.90
2022-11-16T22:24:45.429Z,2.90
2022-11-16T22:27:14.286Z,2.90
2022-11-16T22:29:41.703Z,2.80
2022-11-16T22:32:09.796Z,2.80
2022-11-16T22:34:37.572Z,2.80
2022-11-16T22:37:05.087Z,2.80
2022-11-16T22:39:32.354Z,2.80
2022-11-16T22:41:59.869Z,2.80
2022-11-16T22:44:27.102Z,2.80
2022-11-16T22:46:54.621Z,2.80
2022-11-16T22:49:21.852Z,2.80
2022-11-16T22:51:49.357Z,2.80
2022-11-16T22:54:16.687Z,2.80
2022-11-16T22:56:44.404Z,2.80
2022-11-16T22:59:11.570Z,2.80
2022-11-16T23:01:39.356Z,2.80
2022-11-16T23:04:06.596Z,2.80
2022-11-16T23:06:34.068Z,2.70
2022-11-16T23:09:01.441Z,2.80
2022-11-16T23:11:47.556Z,2.80
2022-11-16T23:14:35.561Z,2.70
2022-11-16T23:17:03.839Z,2.70
2022-11-16T23:19:49.363Z,2.70
2022-11-16T23:22:38.853Z,2.80
2022-11-16T23:25:26.807Z,2.80
2022-11-16T23:28:09.882Z,2.70
2022-11-16T23:30:37.155Z,2.80
2022-11-16T23:33:04.628Z,2.70
2022-11-16T23:35:31.929Z,2.80
2022-11-16T23:38:02.224Z,2.70
2022-11-16T23:40:31.690Z,2.70
2022-11-16T23:43:38.326Z,2.80
2022-11-16T23:46:05.643Z,2.70
2022-11-16T23:48:33.342Z,2.70
2022-11-16T23:51:00.523Z,2.80
2022-11-16T23:53:28.062Z,2.80
2022-11-16T23:56:05.803Z,2.80
2022-11-16T23:58:33.777Z,2.70
